Sovereign — 9HUE9 — position and weather

sailwx.info

Track history (hours):
 
Tides and Currents Weather Stations Pressure Air Temp Water Temp Dewpoint Dewpoint Depression Visibility Wind Speed Wind Dir Waves Ship Positions

Sovereign

Last reported at 2020-Jan-28 21:00 UTC. Time now 2020-Jan-28 21:07 UTC.
Position S 23°57' W 046°19'.

Length 269 m; draft 7.8 m.

Type: Passenger vessel. MMSI: 249539000.

Date/timePositionNaut miles runAvg speedWind from/ knotsBaromVisibWave heightAir tempDewpointWater temp
2020-Jan-28 21:00S 23°57' W 046°19'0 0.0
2020-Jan-28 18:00S 23°57' W 046°19'0 0.0
2020-Jan-28 14:00S 23°57' W 046°19'0 0.0
2020-Jan-28 13:30S 23°57' W 046°19'1 0.6
2020-Jan-28 11:00S 23°58' W 046°18'  
2020-Jan-26 01:28S 23°17' W 043°34'1011.6
2020-Jan-26 00:36S 23°11' W 043°24'2210.7
2020-Jan-25 22:30S 22°54' W 043°09'2 0.6
2020-Jan-25 18:28S 22°54' W 043°11'0 0.0
2020-Jan-25 17:58S 22°54' W 043°11'0 0.0
2020-Jan-25 17:28S 22°54' W 043°11'0 0.0
2020-Jan-25 15:58S 22°54' W 043°11'0 0.0
2020-Jan-25 14:58S 22°54' W 043°11'0 0.0
2020-Jan-25 13:28S 22°54' W 043°11'0 0.0
2020-Jan-25 12:28S 22°54' W 043°11'0 0.0
2020-Jan-25 12:00S 22°54' W 043°11'1 1.1
2020-Jan-25 11:30S 22°53' W 043°11'3810.7
2020-Jan-25 08:00S 23°21' W 043°38'713.8
2020-Jan-25 07:30S 23°24' W 043°45'14413.1
2020-Jan-24 20:30S 23°58' W 046°18'1 1.3
2020-Jan-24 19:56S 23°57' W 046°19'0 0.0
2020-Jan-24 19:29S 23°57' W 046°19'0 0.0
2020-Jan-24 15:56S 23°57' W 046°19'0 0.0
2020-Jan-24 14:55S 23°57' W 046°19'0 0.0
2020-Jan-24 13:55S 23°57' W 046°19'0 0.0
2020-Jan-24 11:55S 23°57' W 046°19'0 0.0
2020-Jan-24 10:55S 23°57' W 046°19'0 0.0
2020-Jan-24 10:25S 23°57' W 046°19'0 0.1
2020-Jan-24 10:00S 23°57' W 046°19'141 7.1
2020-Jan-23 14:00S 23°48' W 043°44'13 8.6
2020-Jan-23 12:29S 23°44' W 043°31'13 9.0
2020-Jan-23 11:00S 23°40' W 043°17'9 8.8
2020-Jan-23 09:58S 23°38' W 043°08'42 9.9
2020-Jan-23 05:40S 23°24' W 042°24'15 0.6
2020-Jan-22 03:56S 23°18' W 042°38'31 7.9
2020-Jan-22 00:01S 23°00' W 043°06'8 2.3
2020-Jan-21 20:29S 22°54' W 043°11'0 0.0
2020-Jan-21 12:56S 22°54' W 043°11'8 5.6
2020-Jan-21 11:30S 23°02' W 043°10'1414.0
2020-Jan-21 10:30S 23°13' W 043°18'17112.7
2020-Jan-20 21:00S 23°57' W 046°19'0 0.0
2020-Jan-20 18:30S 23°57' W 046°19'0 0.0
2020-Jan-20 16:57S 23°57' W 046°19'0 0.0
2020-Jan-20 15:00S 23°57' W 046°19'0 0.0
2020-Jan-20 13:24S 23°57' W 046°19'0 0.0
2020-Jan-20 11:59S 23°57' W 046°19'1 1.0
2020-Jan-20 11:00S 23°58' W 046°18'  
Track history (hours):
 
Tides and Currents Weather Stations Pressure Air Temp Water Temp Dewpoint Dewpoint Depression Visibility Wind Speed Wind Dir Waves Ship Positions

Sovereign

Last reported at 2020-Jan-28 21:00 UTC. Time now 2020-Jan-28 21:07 UTC.
Position S 23°57' W 046°19'.

Length 269 m; draft 7.8 m.

Type: Passenger vessel. MMSI: 249539000.

Date/timePositionNaut miles runAvg speedWind from/ knotsBaromVisibWave heightAir tempDewpointWater temp
2020-Jan-28 21:00S 23°57' W 046°19'0 0.0
2020-Jan-28 18:00S 23°57' W 046°19'0 0.0
2020-Jan-28 14:00S 23°57' W 046°19'0 0.0
2020-Jan-28 13:30S 23°57' W 046°19'1 0.6
2020-Jan-28 11:00S 23°58' W 046°18'  
2020-Jan-26 01:28S 23°17' W 043°34'1011.6
2020-Jan-26 00:36S 23°11' W 043°24'2210.7
2020-Jan-25 22:30S 22°54' W 043°09'2 0.6
2020-Jan-25 18:28S 22°54' W 043°11'0 0.0
2020-Jan-25 17:58S 22°54' W 043°11'0 0.0
2020-Jan-25 17:28S 22°54' W 043°11'0 0.0
2020-Jan-25 15:58S 22°54' W 043°11'0 0.0
2020-Jan-25 14:58S 22°54' W 043°11'0 0.0
2020-Jan-25 13:28S 22°54' W 043°11'0 0.0
2020-Jan-25 12:28S 22°54' W 043°11'0 0.0
2020-Jan-25 12:00S 22°54' W 043°11'1 1.1
2020-Jan-25 11:30S 22°53' W 043°11'3810.7
2020-Jan-25 08:00S 23°21' W 043°38'713.8
2020-Jan-25 07:30S 23°24' W 043°45'14413.1
2020-Jan-24 20:30S 23°58' W 046°18'1 1.3
2020-Jan-24 19:56S 23°57' W 046°19'0 0.0
2020-Jan-24 19:29S 23°57' W 046°19'0 0.0
2020-Jan-24 15:56S 23°57' W 046°19'0 0.0
2020-Jan-24 14:55S 23°57' W 046°19'0 0.0
2020-Jan-24 13:55S 23°57' W 046°19'0 0.0
2020-Jan-24 11:55S 23°57' W 046°19'0 0.0
2020-Jan-24 10:55S 23°57' W 046°19'0 0.0
2020-Jan-24 10:25S 23°57' W 046°19'0 0.1
2020-Jan-24 10:00S 23°57' W 046°19'141 7.1
2020-Jan-23 14:00S 23°48' W 043°44'13 8.6
2020-Jan-23 12:29S 23°44' W 043°31'13 9.0
2020-Jan-23 11:00S 23°40' W 043°17'9 8.8
2020-Jan-23 09:58S 23°38' W 043°08'42 9.9
2020-Jan-23 05:40S 23°24' W 042°24'15 0.6
2020-Jan-22 03:56S 23°18' W 042°38'31 7.9
2020-Jan-22 00:01S 23°00' W 043°06'8 2.3
2020-Jan-21 20:29S 22°54' W 043°11'0 0.0
2020-Jan-21 12:56S 22°54' W 043°11'8 5.6
2020-Jan-21 11:30S 23°02' W 043°10'1414.0
2020-Jan-21 10:30S 23°13' W 043°18'17112.7
2020-Jan-20 21:00S 23°57' W 046°19'0 0.0
2020-Jan-20 18:30S 23°57' W 046°19'0 0.0
2020-Jan-20 16:57S 23°57' W 046°19'0 0.0
2020-Jan-20 15:00S 23°57' W 046°19'0 0.0
2020-Jan-20 13:24S 23°57' W 046°19'0 0.0
2020-Jan-20 11:59S 23°57' W 046°19'1 1.0
2020-Jan-20 11:00S 23°58' W 046°18'  

Dump ship's entire track history